createdAt,value
2022-10-23T00:01:18.862Z,3.30
2022-10-23T00:03:47.877Z,2.30
2022-10-23T00:06:15.634Z,3.20
2022-10-23T00:08:44.290Z,2.75
2022-10-23T00:11:15.143Z,2.60
2022-10-23T00:13:43.300Z,3.67
2022-10-23T00:16:11.212Z,2.28
2022-10-23T00:18:39.291Z,3.47
2022-10-23T00:21:11.282Z,5.13
2022-10-23T00:23:39.193Z,3.65
2022-10-23T00:26:08.464Z,2.42
2022-10-23T00:28:36.179Z,4.10
2022-10-23T00:31:05.622Z,2.67
2022-10-23T00:33:33.524Z,3.28
2022-10-23T00:36:01.280Z,3.78
2022-10-23T00:38:29.062Z,3.63
2022-10-23T00:40:56.840Z,3.08
2022-10-23T00:43:27.208Z,4.43
2022-10-23T00:45:55.833Z,4.35
2022-10-23T00:48:23.997Z,6.63
2022-10-23T00:50:52.533Z,3.50
2022-10-23T00:53:23.312Z,2.13
2022-10-23T00:55:54.055Z,5.18
2022-10-23T00:58:22.141Z,3.13
2022-10-23T01:00:55.524Z,3.17
2022-10-23T01:03:27.810Z,5.10
2022-10-23T01:06:15.774Z,3.35
2022-10-23T01:08:55.507Z,3.28
2022-10-23T01:11:39.079Z,1.90
2022-10-23T01:14:18.190Z,2.63
2022-10-23T01:16:57.634Z,3.38
2022-10-23T01:19:57.943Z,2.20
2022-10-23T01:22:44.659Z,2.20
2022-10-23T01:25:37.492Z,3.28
2022-10-23T01:28:11.672Z,2.05
2022-10-23T01:30:44.717Z,2.53
2022-10-23T01:33:33.300Z,2.10
2022-10-23T01:36:08.905Z,2.35
2022-10-23T01:38:46.741Z,5.22
2022-10-23T01:41:35.930Z,2.17
2022-10-23T01:44:40.394Z,1.98
2022-10-23T01:47:11.790Z,2.95
2022-10-23T01:50:02.761Z,2.83
2022-10-23T01:52:31.030Z,2.90
2022-10-23T01:55:01.440Z,3.20
2022-10-23T01:57:33.888Z,1.92
2022-10-23T02:00:07.529Z,2.97
2022-10-23T02:02:52.816Z,6.20
2022-10-23T02:05:26.632Z,2.00
2022-10-23T02:07:56.720Z,2.95
2022-10-23T02:11:06.247Z,1.73
2022-10-23T02:13:46.390Z,3.42
2022-10-23T02:16:43.909Z,3.03
2022-10-23T02:19:42.636Z,2.90
2022-10-23T02:22:23.401Z,3.55
2022-10-23T02:25:01.235Z,3.30
2022-10-23T02:27:40.848Z,2.00
2022-10-23T02:30:12.027Z,1.83
2022-10-23T02:32:44.953Z,1.90
2022-10-23T02:35:14.157Z,6.38
2022-10-23T02:37:42.404Z,2.20
2022-10-23T02:40:11.827Z,2.45
2022-10-23T02:46:10.220Z,5.15
2022-10-23T02:48:51.688Z,2.15
2022-10-23T02:51:26.270Z,1.50
2022-10-23T02:53:59.893Z,2.45
2022-10-23T02:56:38.527Z,2.10
2022-10-23T02:59:18.385Z,1.75
2022-10-23T03:01:52.185Z,2.38
2022-10-23T03:04:24.162Z,2.30
2022-10-23T03:06:52.249Z,1.98
2022-10-23T03:09:20.064Z,3.80
2022-10-23T03:11:47.835Z,4.15
2022-10-23T03:14:15.651Z,2.42
2022-10-23T03:16:43.426Z,2.50
2022-10-23T03:24:13.098Z,3.42
2022-10-23T03:26:43.707Z,5.53
2022-10-23T03:29:11.444Z,2.30
2022-10-23T03:31:45.121Z,6.20
2022-10-23T03:34:13.947Z,3.88
2022-10-23T03:36:42.383Z,3.03
2022-10-23T03:39:11.316Z,5.47
2022-10-23T03:41:39.019Z,1.88
2022-10-23T03:44:06.768Z,2.05
2022-10-23T03:46:34.641Z,1.92
2022-10-23T03:49:02.451Z,3.17
2022-10-23T03:51:30.319Z,2.33
2022-10-23T03:53:58.636Z,4.40
2022-10-23T03:56:26.573Z,2.22
2022-10-23T03:58:54.335Z,2.88
2022-10-23T04:01:25.224Z,2.75
2022-10-23T04:03:53.227Z,2.25
2022-10-23T04:06:23.567Z,3.90
2022-10-23T04:08:55.956Z,3.17
2022-10-23T04:11:23.858Z,2.33
2022-10-23T04:13:51.599Z,2.75
2022-10-23T04:16:19.397Z,3.53
2022-10-23T04:18:47.277Z,3.22
2022-10-23T04:21:15.112Z,2.55
2022-10-23T04:23:43.141Z,4.00
2022-10-23T04:26:16.402Z,4.40
2022-10-23T04:28:44.199Z,6.03
2022-10-23T04:31:12.504Z,3.97
2022-10-23T04:33:42.375Z,3.30
2022-10-23T04:36:10.364Z,2.50
2022-10-23T04:38:38.088Z,2.45
2022-10-23T04:41:07.430Z,2.17
2022-10-23T04:43:35.486Z,4.82
2022-10-23T04:46:04.458Z,2.72
2022-10-23T04:48:32.629Z,2.67
2022-10-23T04:51:19.341Z,2.33
2022-10-23T04:54:05.552Z,4.13
2022-10-23T04:56:56.501Z,3.78
2022-10-23T04:59:25.322Z,6.68
2022-10-23T05:01:53.083Z,3.45
2022-10-23T05:04:20.964Z,4.47
2022-10-23T05:07:06.944Z,5.80
2022-10-23T05:09:50.920Z,3.38
2022-10-23T05:12:27.803Z,2.67
2022-10-23T05:14:55.867Z,3.78
2022-10-23T05:17:39.579Z,2.95
2022-10-23T05:20:12.884Z,2.17
2022-10-23T05:22:43.046Z,7.10
2022-10-23T05:25:13.732Z,3.22
2022-10-23T05:27:46.466Z,4.65
2022-10-23T05:30:16.596Z,3.72
2022-10-23T05:32:45.117Z,3.63
2022-10-23T05:35:22.237Z,3.45
2022-10-23T05:37:54.370Z,2.50
2022-10-23T05:40:25.223Z,5.33
2022-10-23T05:42:59.443Z,3.72
2022-10-23T05:45:41.864Z,2.83
2022-10-23T05:48:34.952Z,2.60
2022-10-23T05:51:23.671Z,2.85
2022-10-23T05:54:17.758Z,4.13
2022-10-23T05:57:18.761Z,4.78
2022-10-23T05:59:50.488Z,3.47
2022-10-23T06:02:27.308Z,2.97
2022-10-23T06:05:02.939Z,3.92
2022-10-23T06:07:47.665Z,2.05
2022-10-23T06:10:15.610Z,6.82
2022-10-23T06:12:46.711Z,2.42
2022-10-23T06:15:17.420Z,4.90
2022-10-23T06:18:06.058Z,3.63
2022-10-23T06:20:37.961Z,4.10
2022-10-23T06:23:23.112Z,3.65
2022-10-23T06:26:29.234Z,4.70
2022-10-23T06:29:02.212Z,3.20
2022-10-23T06:31:30.649Z,3.00
2022-10-23T06:33:59.894Z,5.65
2022-10-23T06:36:29.958Z,2.72
2022-10-23T06:39:10.348Z,4.07
2022-10-23T06:42:01.445Z,4.55
2022-10-23T06:44:47.880Z,4.20
2022-10-23T06:47:24.982Z,5.07
2022-10-23T06:50:14.595Z,4.25
2022-10-23T06:52:47.293Z,6.47
2022-10-23T06:55:18.569Z,2.85
2022-10-23T06:57:47.288Z,3.88
2022-10-23T07:00:15.464Z,5.60
2022-10-23T07:02:53.461Z,3.85
2022-10-23T07:05:21.416Z,2.70
2022-10-23T07:07:49.223Z,3.95
2022-10-23T07:13:01.094Z,3.10
2022-10-23T07:15:41.077Z,4.10
2022-10-23T07:18:14.768Z,3.88
2022-10-23T07:21:01.273Z,5.10
2022-10-23T07:23:30.976Z,3.35
2022-10-23T07:26:10.321Z,3.60
2022-10-23T07:28:38.962Z,3.75
2022-10-23T07:31:06.756Z,3.55
2022-10-23T07:33:57.501Z,3.75
2022-10-23T07:36:25.418Z,3.05
2022-10-23T07:38:53.313Z,2.38
2022-10-23T07:41:21.856Z,3.28
2022-10-23T07:43:49.652Z,3.53
2022-10-23T07:46:17.535Z,3.55
2022-10-23T07:48:45.337Z,3.55
2022-10-23T07:51:16.040Z,4.70
2022-10-23T07:53:50.412Z,2.53
2022-10-23T07:56:56.693Z,3.30
2022-10-23T07:59:29.369Z,4.25
2022-10-23T08:02:01.455Z,9.38
2022-10-23T08:04:34.030Z,3.97
2022-10-23T08:07:09.559Z,2.38
2022-10-23T08:09:42.562Z,4.15
2022-10-23T08:12:10.494Z,5.45
2022-10-23T08:14:38.696Z,3.83
2022-10-23T08:17:09.998Z,2.50
2022-10-23T08:20:04.537Z,3.35
2022-10-23T08:22:39.303Z,3.00
2022-10-23T08:25:07.618Z,3.97
2022-10-23T08:27:35.359Z,3.65
2022-10-23T08:30:03.515Z,4.00
2022-10-23T08:32:31.730Z,3.15
2022-10-23T08:35:00.873Z,3.95
2022-10-23T08:37:31.969Z,2.88
2022-10-23T08:40:00.034Z,3.15
2022-10-23T08:42:57.277Z,4.03
2022-10-23T08:45:47.504Z,4.53
2022-10-23T08:49:12.319Z,4.45
2022-10-23T08:51:54.995Z,4.60
2022-10-23T08:54:55.343Z,4.47
2022-10-23T08:57:24.289Z,2.40
2022-10-23T09:00:14.999Z,2.63
2022-10-23T09:02:48.809Z,3.75
2022-10-23T09:05:35.290Z,3.70
2022-10-23T09:08:05.646Z,4.78
2022-10-23T09:10:42.870Z,5.43
2022-10-23T09:13:28.577Z,4.15
2022-10-23T09:16:23.299Z,5.63
2022-10-23T09:21:18.934Z,4.97
2022-10-23T09:23:46.702Z,4.22
2022-10-23T09:26:18.754Z,3.90
2022-10-23T09:28:49.569Z,2.70
2022-10-23T09:31:18.257Z,5.07
2022-10-23T09:33:59.923Z,2.92
2022-10-23T09:36:29.634Z,3.53
2022-10-23T09:39:00.394Z,3.83
2022-10-23T09:41:31.080Z,3.80
2022-10-23T09:44:07.769Z,3.90
2022-10-23T09:46:43.630Z,6.00
2022-10-23T09:49:27.363Z,18.65
2022-10-23T09:52:06.271Z,5.10
2022-10-23T09:54:38.644Z,4.32
2022-10-23T09:57:18.262Z,11.98
2022-10-23T09:59:52.024Z,5.32
2022-10-23T10:02:29.425Z,7.18
2022-10-23T10:05:24.377Z,8.27
2022-10-23T10:08:00.153Z,5.15
2022-10-23T10:10:40.033Z,5.85
2022-10-23T10:13:30.588Z,5.53
2022-10-23T10:16:44.598Z,3.85
2022-10-23T10:19:28.262Z,7.75
2022-10-23T10:22:20.535Z,5.13
2022-10-23T10:24:59.513Z,6.32
2022-10-23T10:27:46.011Z,4.22
2022-10-23T10:30:16.649Z,4.00
2022-10-23T10:32:52.043Z,6.65
2022-10-23T10:35:27.060Z,6.40
2022-10-23T10:38:26.870Z,5.30
2022-10-23T10:41:19.158Z,8.27
2022-10-23T10:44:08.172Z,7.10
2022-10-23T10:46:53.957Z,9.18
2022-10-23T10:49:31.820Z,7.53
2022-10-23T10:52:37.971Z,5.70
2022-10-23T10:55:33.985Z,7.82
2022-10-23T10:58:11.018Z,7.88
2022-10-23T11:00:38.907Z,5.20
2022-10-23T11:03:39.978Z,6.32
2022-10-23T11:06:16.057Z,5.35
2022-10-23T11:08:57.644Z,12.43
2022-10-23T11:11:41.093Z,6.70
2022-10-23T11:14:26.872Z,6.47
2022-10-23T11:17:06.002Z,7.75
2022-10-23T11:19:41.756Z,5.38
2022-10-23T11:22:43.242Z,6.05
2022-10-23T11:25:44.988Z,7.35
2022-10-23T11:28:30.754Z,9.98
2022-10-23T11:31:32.963Z,5.93
2022-10-23T11:34:12.925Z,7.13
2022-10-23T11:36:53.133Z,7.28
2022-10-23T11:39:25.172Z,6.55
2022-10-23T11:42:11.919Z,7.82
2022-10-23T11:47:58.306Z,6.25
2022-10-23T11:50:38.308Z,5.70
2022-10-23T11:53:23.405Z,8.40
2022-10-23T11:56:02.084Z,4.85
2022-10-23T11:58:54.018Z,6.32
2022-10-23T12:01:43.277Z,4.78
2022-10-23T12:04:45.673Z,7.20
2022-10-23T12:07:30.415Z,5.93
2022-10-23T12:10:40.673Z,5.63
2022-10-23T12:13:36.628Z,7.72
2022-10-23T12:16:10.212Z,8.68
2022-10-23T12:18:51.045Z,5.65
2022-10-23T12:21:22.274Z,4.53
2022-10-23T12:24:13.184Z,6.28
2022-10-23T12:26:50.956Z,5.07
2022-10-23T12:29:27.614Z,9.40
2022-10-23T12:32:07.859Z,4.05
2022-10-23T12:34:42.557Z,5.97
2022-10-23T12:37:28.896Z,7.25
2022-10-23T12:39:56.853Z,6.57
2022-10-23T12:42:27.334Z,6.15
2022-10-23T12:45:24.287Z,8.25
2022-10-23T12:47:52.994Z,4.90
2022-10-23T12:50:22.471Z,5.78
2022-10-23T12:52:57.677Z,5.57
2022-10-23T12:55:35.834Z,4.90
2022-10-23T12:58:03.914Z,9.52
2022-10-23T13:00:32.127Z,8.73
2022-10-23T13:03:02.300Z,7.95
2022-10-23T13:05:32.445Z,6.20
2022-10-23T13:08:04.853Z,5.13
2022-10-23T13:10:44.331Z,7.90
2022-10-23T13:13:14.538Z,11.55
2022-10-23T13:15:44.469Z,5.85
2022-10-23T13:18:14.658Z,8.32
2022-10-23T13:20:44.043Z,9.23
2022-10-23T13:23:18.863Z,6.95
2022-10-23T13:25:57.537Z,8.77
2022-10-23T13:28:43.181Z,6.50
2022-10-23T13:31:10.957Z,7.25
2022-10-23T13:33:45.867Z,5.28
2022-10-23T13:36:16.897Z,6.40
2022-10-23T13:39:02.222Z,5.70
2022-10-23T13:41:47.826Z,4.55
2022-10-23T13:44:21.230Z,8.05
2022-10-23T13:46:49.846Z,5.40
2022-10-23T13:49:18.602Z,5.47
2022-10-23T13:51:55.563Z,7.05
2022-10-23T13:54:25.573Z,7.00
2022-10-23T13:56:55.198Z,4.57
2022-10-23T13:59:23.539Z,7.47
2022-10-23T14:01:52.275Z,6.28
2022-10-23T14:04:21.113Z,7.65
2022-10-23T14:06:58.688Z,10.57
2022-10-23T14:09:26.673Z,7.15
2022-10-23T14:11:54.466Z,9.38
2022-10-23T14:14:22.242Z,11.02
2022-10-23T14:16:50.018Z,4.68
2022-10-23T14:19:17.755Z,8.90
2022-10-23T14:21:45.523Z,9.88
2022-10-23T14:24:14.840Z,7.97
2022-10-23T14:26:43.349Z,5.13
2022-10-23T14:29:18.702Z,5.68
2022-10-23T14:31:49.312Z,6.82
2022-10-23T14:34:17.230Z,8.52
2022-10-23T14:36:50.238Z,5.95
2022-10-23T14:39:24.410Z,7.93
2022-10-23T14:41:52.126Z,5.90
2022-10-23T14:44:19.883Z,3.85
2022-10-23T14:46:47.713Z,5.95
2022-10-23T14:49:15.485Z,5.70
2022-10-23T14:51:43.284Z,5.05
2022-10-23T14:54:11.024Z,6.43
2022-10-23T14:56:42.360Z,6.07
2022-10-23T14:59:11.755Z,8.70
2022-10-23T15:01:45.132Z,12.48
2022-10-23T15:06:43.930Z,9.75
2022-10-23T15:09:11.689Z,5.90
2022-10-23T15:11:39.861Z,7.68
2022-10-23T15:14:07.741Z,7.78
2022-10-23T15:16:41.433Z,11.40
2022-10-23T15:21:44.999Z,6.43
2022-10-23T15:24:12.836Z,5.95
2022-10-23T15:26:43.212Z,12.38
2022-10-23T15:29:12.546Z,7.38
2022-10-23T15:31:43.259Z,7.00
2022-10-23T15:34:14.564Z,11.30
2022-10-23T15:36:43.315Z,13.02
2022-10-23T15:39:13.211Z,7.53
2022-10-23T15:41:43.446Z,9.20
2022-10-23T15:44:17.847Z,11.55
2022-10-23T15:46:46.005Z,12.73
2022-10-23T15:49:13.842Z,6.55
2022-10-23T15:51:42.714Z,8.23
2022-10-23T15:54:17.411Z,13.00
2022-10-23T15:56:51.749Z,12.18
2022-10-23T15:59:24.041Z,9.05
2022-10-23T16:01:52.543Z,8.20
2022-10-23T16:04:20.578Z,12.82
2022-10-23T16:06:49.327Z,7.60
2022-10-23T16:09:17.500Z,7.95
2022-10-23T16:11:45.535Z,8.27
2022-10-23T16:14:17.609Z,9.32
2022-10-23T16:16:45.859Z,8.35
2022-10-23T16:19:13.780Z,10.40
2022-10-23T16:21:42.161Z,5.40
2022-10-23T16:24:10.398Z,8.50
2022-10-23T16:26:40.866Z,7.85
2022-10-23T16:29:09.667Z,8.63
2022-10-23T16:31:37.786Z,6.70
2022-10-23T16:34:06.523Z,7.70
2022-10-23T16:36:35.447Z,12.48
2022-10-23T16:39:22.092Z,14.82
2022-10-23T16:42:08.681Z,8.63
2022-10-23T16:44:51.709Z,11.90
2022-10-23T16:47:19.763Z,7.68
2022-10-23T16:49:47.614Z,7.05
2022-10-23T16:52:15.984Z,10.02
2022-10-23T16:54:44.614Z,10.98
2022-10-23T16:57:12.455Z,12.50
2022-10-23T16:59:40.354Z,8.60
2022-10-23T17:02:11.189Z,10.88
2022-10-23T17:04:40.180Z,10.15
2022-10-23T17:07:08.175Z,13.00
2022-10-23T17:09:36.645Z,7.00
2022-10-23T17:12:04.632Z,5.80
2022-10-23T17:14:32.663Z,9.88
2022-10-23T17:17:05.778Z,11.75
2022-10-23T17:19:44.536Z,8.73
2022-10-23T17:22:14.037Z,8.52
2022-10-23T17:24:44.317Z,13.50
2022-10-23T17:27:14.121Z,8.52
2022-10-23T17:29:43.089Z,13.82
2022-10-23T17:32:11.130Z,14.38
2022-10-23T17:34:38.943Z,14.52
2022-10-23T17:37:08.855Z,12.27
2022-10-23T17:39:36.730Z,18.17
2022-10-23T17:42:04.664Z,12.02
2022-10-23T17:44:32.513Z,11.23
2022-10-23T17:47:00.247Z,13.60
2022-10-23T17:49:28.087Z,11.25
2022-10-23T17:51:57.666Z,14.45
2022-10-23T17:54:27.070Z,10.48
2022-10-23T17:56:55.250Z,11.23
2022-10-23T17:59:23.279Z,8.73
2022-10-23T18:01:51.297Z,18.05
2022-10-23T18:04:20.715Z,17.20
2022-10-23T18:06:51.180Z,12.75
2022-10-23T18:09:20.250Z,12.63
2022-10-23T18:11:48.662Z,11.48
2022-10-23T18:14:18.680Z,12.55
2022-10-23T18:16:46.884Z,14.68
2022-10-23T18:19:18.450Z,11.82
2022-10-23T18:21:47.918Z,6.07
2022-10-23T18:24:16.494Z,11.40
2022-10-23T18:26:44.806Z,11.02
2022-10-23T18:29:12.941Z,7.65
2022-10-23T18:31:41.645Z,9.00
2022-10-23T18:34:16.927Z,8.75
2022-10-23T18:36:45.396Z,8.30
2022-10-23T18:39:17.082Z,6.40
2022-10-23T18:41:46.680Z,10.73
2022-10-23T18:44:40.093Z,11.25
2022-10-23T18:47:08.540Z,10.05
2022-10-23T18:49:36.417Z,13.23
2022-10-23T18:52:04.536Z,8.07
2022-10-23T18:54:32.459Z,11.18
2022-10-23T18:57:00.366Z,7.95
2022-10-23T18:59:28.604Z,6.53
2022-10-23T19:01:56.822Z,7.53
2022-10-23T19:04:24.802Z,8.38
2022-10-23T19:06:52.863Z,13.13
2022-10-23T19:09:21.951Z,7.82
2022-10-23T19:11:49.896Z,5.30
2022-10-23T19:14:17.763Z,4.88
2022-10-23T19:17:07.961Z,5.03
2022-10-23T19:19:43.544Z,4.88
2022-10-23T19:22:12.747Z,6.45
2022-10-23T19:24:46.042Z,5.97
2022-10-23T19:27:14.141Z,10.15
2022-10-23T19:29:45.420Z,6.00
2022-10-23T19:32:14.832Z,7.57
2022-10-23T19:34:45.615Z,6.90
2022-10-23T19:39:46.834Z,5.00
2022-10-23T19:42:15.026Z,9.45
2022-10-23T19:44:42.747Z,7.00
2022-10-23T19:47:11.754Z,7.03
2022-10-23T19:49:39.700Z,4.93
2022-10-23T19:52:07.800Z,4.53
2022-10-23T19:54:37.930Z,6.88
2022-10-23T19:57:05.709Z,6.88
2022-10-23T19:59:34.082Z,5.45
2022-10-23T20:02:02.524Z,8.35
2022-10-23T20:04:30.744Z,5.50
2022-10-23T20:07:01.936Z,5.78
2022-10-23T20:09:31.027Z,7.22
2022-10-23T20:12:00.647Z,4.60
2022-10-23T20:14:28.639Z,6.22
2022-10-23T20:16:56.611Z,8.00
2022-10-23T20:19:25.001Z,7.18
2022-10-23T20:21:52.921Z,7.78
2022-10-23T20:24:21.586Z,9.10
2022-10-23T20:26:52.205Z,5.88
2022-10-23T20:29:21.043Z,4.93
2022-10-23T20:31:50.738Z,8.75
2022-10-23T20:34:19.339Z,9.30
2022-10-23T20:36:50.034Z,8.10
2022-10-23T20:39:25.652Z,5.50
2022-10-23T20:41:55.463Z,7.53
2022-10-23T20:44:24.740Z,5.93
2022-10-23T20:46:52.926Z,8.70
2022-10-23T20:49:21.825Z,8.57
2022-10-23T20:51:56.460Z,6.07
2022-10-23T20:54:28.975Z,10.30
2022-10-23T20:57:00.062Z,6.32
2022-10-23T20:59:28.807Z,7.97
2022-10-23T21:01:57.625Z,9.50
2022-10-23T21:04:27.882Z,8.98
2022-10-23T21:07:09.293Z,8.48
2022-10-23T21:10:03.687Z,5.22
2022-10-23T21:12:37.843Z,6.57
2022-10-23T21:15:06.783Z,11.40
2022-10-23T21:17:38.836Z,5.70
2022-10-23T21:20:07.585Z,9.45
2022-10-23T21:22:35.378Z,4.95
2022-10-23T21:25:03.238Z,6.70
2022-10-23T21:27:31.137Z,8.50
2022-10-23T21:29:58.995Z,5.30
2022-10-23T21:32:26.777Z,6.30
2022-10-23T21:34:55.241Z,4.85
2022-10-23T21:37:25.190Z,5.15
2022-10-23T21:39:52.964Z,7.78
2022-10-23T21:42:20.840Z,7.90
2022-10-23T21:44:48.654Z,4.30
2022-10-23T21:47:16.410Z,9.40
2022-10-23T21:49:44.323Z,4.78
2022-10-23T21:52:14.005Z,6.68
2022-10-23T21:54:44.000Z,6.75
2022-10-23T21:57:15.229Z,9.43
2022-10-23T21:59:44.333Z,10.00
2022-10-23T22:02:12.270Z,9.55
2022-10-23T22:04:40.154Z,7.25
2022-10-23T22:07:10.934Z,14.10
2022-10-23T22:09:38.739Z,6.70
2022-10-23T22:12:06.460Z,8.55
2022-10-23T22:14:36.264Z,9.23
2022-10-23T22:17:04.056Z,6.75
2022-10-23T22:19:31.991Z,5.75
2022-10-23T22:21:59.769Z,7.90
2022-10-23T22:24:27.572Z,8.43
2022-10-23T22:26:56.755Z,5.47
2022-10-23T22:29:27.263Z,8.65
2022-10-23T22:31:55.417Z,7.85
2022-10-23T22:34:48.003Z,6.47
2022-10-23T22:37:13.642Z,7.15
2022-10-23T22:39:41.545Z,6.18
2022-10-23T22:42:09.596Z,4.60
2022-10-23T22:44:37.367Z,4.72
2022-10-23T22:47:05.360Z,6.53
2022-10-23T22:49:33.132Z,7.88
2022-10-23T22:52:00.980Z,4.55
2022-10-23T22:54:30.593Z,4.45
2022-10-23T22:56:58.474Z,9.23
2022-10-23T22:59:26.293Z,8.00
2022-10-23T23:01:54.396Z,5.22
2022-10-23T23:04:38.616Z,5.43
2022-10-23T23:09:44.048Z,5.13
2022-10-23T23:12:13.933Z,7.75
2022-10-23T23:14:42.341Z,6.53
2022-10-23T23:17:10.772Z,6.70
2022-10-23T23:19:38.808Z,6.32
2022-10-23T23:22:06.834Z,5.95
2022-10-23T23:24:34.583Z,7.97
2022-10-23T23:27:02.452Z,5.68
2022-10-23T23:29:30.209Z,7.93
2022-10-23T23:31:58.339Z,7.15
2022-10-23T23:34:26.243Z,6.47
2022-10-23T23:36:53.976Z,5.43
2022-10-23T23:39:21.700Z,7.78
2022-10-23T23:41:49.604Z,7.93
2022-10-23T23:44:17.374Z,6.30
2022-10-23T23:46:45.098Z,7.88
2022-10-23T23:49:12.867Z,6.07
2022-10-23T23:51:40.710Z,5.88
2022-10-23T23:54:08.486Z,5.05
2022-10-23T23:56:36.235Z,7.20
2022-10-23T23:59:04.529Z,8.07
